Terminal Aerodrome Forecast
Issued by NWS Louisville, KY

Home | Current Version | Previous Version | Text Only | Print | Product List | Glossary On
Versions: 1 2 3 4 5 6 7 8 9 10 11 12 13 14 15 16 17 18 19 20 21
654
FTUS43 KLMK 251932 AAA
TAFSDF
TAF AMD
KSDF 251932Z 2520/2624 26006KT P6SM VCTS BKN035CB
      TEMPO 2520/2523 2SM TSRA BR
     FM260200 VRB03KT P6SM SCT050 BKN250=

USA.gov is the U.S. government's official web portal to all federal, state and local government web resources and services.